Time;durP1;ratioP1;P1;durP2;ratioP2;P2;SDS_P1;SDS_P2;PMS_P1;PMS_P2;Temp;Humidity;BMP_temperature;BMP_pressure;BME280_temperature;BME280_humidity;BME280_pressure;Samples;Min_cycle;Max_cycle;Signal;HPM_P1;HPM_P2
2023/12/05 00:00:48;;;;;;;;;;;;;;;4.86;100.00;98115.38;4982613;28;19926;-84
2023/12/05 08:56:41;;;;;;;;;;;;;;;4.60;100.00;98370.22;4962372;28;20703;-85
2023/12/05 08:59:06;;;;;;;;;;;;;;;4.51;100.00;98379.31;4982632;28;19921;-85
2023/12/05 09:01:32;;;;;;;;;;;;;;;4.47;100.00;98383.84;4982621;28;19922;-84
2023/12/05 09:03:57;;;;;;;;;;;;;;;4.44;100.00;98380.50;4981286;28;19922;-85
2023/12/05 09:06:22;;;;;;;;;;;;;;;4.43;100.00;98384.88;4982109;28;19936;-85
2023/12/05 09:08:47;;;;;;;;;;;;;;;4.43;100.00;98389.25;4981732;28;19922;-85
2023/12/05 09:11:13;;;;;;;;;;;;;;;4.42;100.00;98393.66;4986066;28;19921;-85
2023/12/05 09:13:38;;;;;;;;;;;;;;;4.35;100.00;98397.44;4985001;28;19952;-84
2023/12/05 09:16:04;;;;;;;;;;;;;;;4.58;100.00;98391.28;4985218;28;19918;-85
2023/12/05 09:18:29;;;;;;;;;;;;;;;5.29;100.00;98406.69;4984718;28;20013;-86
2023/12/05 09:20:54;;;;;;;;;;;;;;;5.74;100.00;98396.84;4985134;28;20005;-85
2023/12/05 09:23:20;;;;;;;;;;;;;;;6.01;100.00;98405.25;4983117;28;20325;-83
2023/12/05 09:25:45;;;;;;;;;;;;;;;6.27;100.00;98409.31;4985770;28;20497;-84
2023/12/05 09:28:10;;;;;;;;;;;;;;;6.47;100.00;98408.34;4984533;28;19973;-87
2023/12/05 09:30:36;;;;;;;;;;;;;;;6.67;100.00;98407.41;4984051;28;19922;-84
2023/12/05 09:33:01;;;;;;;;;;;;;;;6.79;100.00;98411.22;4985961;28;19933;-93
2023/12/05 09:35:27;;;;;;;;;;;;;;;6.85;100.00;98417.97;4985953;28;20392;-83
2023/12/05 09:37:52;;;;;;;;;;;;;;;6.91;100.00;98415.03;4986092;28;19933;-83
2023/12/05 09:40:18;;;;;;;;;;;;;;;7.03;100.00;98411.75;4984170;28;19918;-81
2023/12/05 09:42:46;;;;;;;;;;;;;;;7.14;100.00;98419.13;4984319;28;19922;-85
2023/12/05 09:45:13;;;;;;;;;;;;;;;7.27;100.00;98417.59;5007937;28;20308;-85
2023/12/05 09:47:41;;;;;;;;;;;;;;;7.36;100.00;98416.25;4985454;28;19918;-85
2023/12/05 09:50:06;;;;;;;;;;;;;;;7.57;100.00;98421.34;4984824;28;19918;-90
2023/12/05 09:52:32;;;;;;;;;;;;;;;7.66;100.00;98422.63;4985062;28;19926;-88
2023/12/05 09:54:57;;;;;;;;;;;;;;;7.69;100.00;98414.56;4983780;28;19918;-85
2023/12/05 09:57:23;;;;;;;;;;;;;;;7.73;100.00;98419.59;4985067;28;19925;-84
2023/12/05 09:59:48;;;;;;;;;;;;;;;7.81;100.00;98420.03;4984848;28;20365;-82
2023/12/05 10:02:15;;;;;;;;;;;;;;;7.88;100.00;98425.00;4984739;28;19922;-84
2023/12/05 10:04:44;;;;;;;;;;;;;;;7.95;100.00;98427.22;4999841;28;20491;-84
2023/12/05 10:07:11;;;;;;;;;;;;;;;8.02;100.00;98437.44;4983459;28;19928;-84
2023/12/05 10:09:38;;;;;;;;;;;;;;;7.54;100.00;98426.78;4983994;28;20364;-85
2023/12/05 10:12:04;;;;;;;;;;;;;;;6.38;100.00;98418.47;4983167;28;19930;-87
2023/12/05 10:14:29;;;;;;;;;;;;;;;5.93;100.00;98434.50;4985177;28;19926;-84
2023/12/05 10:16:54;;;;;;;;;;;;;;;5.71;100.00;98433.75;4984975;28;19918;-86
2023/12/05 10:19:21;;;;;;;;;;;;;;;5.51;100.00;98432.03;4983658;28;20285;-84
2023/12/05 10:21:48;;;;;;;;;;;;;;;5.48;100.00;98438.25;4983497;28;19926;-84
2023/12/05 10:24:13;;;;;;;;;;;;;;;5.30;100.00;98436.41;4982632;28;19918;-83
2023/12/05 10:26:46;;;;;;;;;;;;;;;5.26;100.00;98439.22;4985096;28;19999;-85
2023/12/05 10:29:12;;;;;;;;;;;;;;;5.16;100.00;98435.25;4983491;28;20337;-85
2023/12/05 10:31:37;;;;;;;;;;;;;;;5.03;100.00;98434.91;4984474;28;19922;-86
2023/12/05 10:34:03;;;;;;;;;;;;;;;5.08;100.00;98432.09;4985324;28;19980;-85
2023/12/05 10:36:29;;;;;;;;;;;;;;;5.01;100.00;98430.63;4982196;28;19930;-82
2023/12/05 10:38:54;;;;;;;;;;;;;;;4.91;100.00;98436.28;4982188;28;19929;-84
2023/12/05 10:41:23;;;;;;;;;;;;;;;4.82;100.00;98444.53;4982335;28;19932;-85
2023/12/05 10:43:49;;;;;;;;;;;;;;;4.80;100.00;98443.72;4982370;28;19949;-85
2023/12/05 10:46:14;;;;;;;;;;;;;;;4.77;100.00;98446.50;4984444;28;19922;-85
2023/12/05 10:48:39;;;;;;;;;;;;;;;4.71;100.00;98436.25;4984265;28;19929;-85
2023/12/05 10:51:05;;;;;;;;;;;;;;;4.81;100.00;98447.22;4982749;28;20564;-85
2023/12/05 10:53:34;;;;;;;;;;;;;;;4.75;100.00;98444.84;4980612;28;19926;-84
2023/12/05 10:56:09;;;;;;;;;;;;;;;4.71;100.00;98438.88;4982229;28;19984;-85
2023/12/05 10:58:36;;;;;;;;;;;;;;;4.63;100.00;98439.16;4983088;28;20013;-84
2023/12/05 11:01:02;;;;;;;;;;;;;;;4.73;100.00;98440.50;4982635;28;19918;-84
2023/12/05 11:03:27;;;;;;;;;;;;;;;4.66;100.00;98446.91;4983157;28;19935;-84
2023/12/05 11:05:53;;;;;;;;;;;;;;;4.62;100.00;98447.09;4983989;28;19918;-84
2023/12/05 11:08:18;;;;;;;;;;;;;;;4.55;100.00;98442.09;4981479;28;19926;-86
2023/12/05 11:10:47;;;;;;;;;;;;;;;4.52;100.00;98450.09;4983694;28;19914;-84
2023/12/05 11:13:13;;;;;;;;;;;;;;;4.43;100.00;98452.22;4978993;28;20455;-84
2023/12/05 11:15:39;;;;;;;;;;;;;;;4.45;100.00;98450.38;4982561;28;19918;-84
2023/12/05 11:18:05;;;;;;;;;;;;;;;4.45;100.00;98456.50;5006018;28;19969;-84
2023/12/05 11:20:40;;;;;;;;;;;;;;;4.39;100.00;98454.13;4982683;28;19922;-84
2023/12/05 11:23:24;;;;;;;;;;;;;;;4.45;100.00;98455.63;4982703;28;19957;-84
2023/12/05 11:25:54;;;;;;;;;;;;;;;4.42;100.00;98447.88;4983766;28;20277;-86
2023/12/05 11:28:37;;;;;;;;;;;;;;;4.38;100.00;98447.16;4981987;28;20376;-86
2023/12/05 11:31:12;;;;;;;;;;;;;;;4.41;100.00;98457.53;4982747;28;19926;-84
2023/12/05 11:33:56;;;;;;;;;;;;;;;5.20;100.00;98454.34;4983009;28;19919;-86
2023/12/05 11:36:40;;;;;;;;;;;;;;;5.74;100.00;98462.53;4981451;28;19934;-84
2023/12/05 11:39:06;;;;;;;;;;;;;;;6.06;100.00;98455.03;4981727;28;19990;-84
2023/12/05 11:41:34;;;;;;;;;;;;;;;6.27;100.00;98459.31;4981576;28;20467;-85
2023/12/05 11:44:16;;;;;;;;;;;;;;;6.40;100.00;98461.34;4983011;28;19924;-81
2023/12/05 11:46:42;;;;;;;;;;;;;;;6.51;100.00;98469.59;4983155;28;19922;-85
2023/12/05 11:49:07;;;;;;;;;;;;;;;6.65;100.00;98464.56;4982726;28;19919;-85
2023/12/05 11:51:35;;;;;;;;;;;;;;;6.79;100.00;98465.66;4981244;28;19914;-85
2023/12/05 11:54:00;;;;;;;;;;;;;;;6.91;100.00;98471.16;4981258;28;19960;-86
2023/12/05 11:56:28;;;;;;;;;;;;;;;7.04;100.00;98466.16;4981870;28;19989;-84
2023/12/05 11:58:53;;;;;;;;;;;;;;;7.09;100.00;98477.31;4981638;28;19926;-83
2023/12/05 12:01:18;;;;;;;;;;;;;;;7.23;100.00;98465.25;4981630;28;20301;-85
2023/12/05 12:03:47;;;;;;;;;;;;;;;7.36;100.00;98474.22;4981227;28;19985;-83
2023/12/05 12:06:16;;;;;;;;;;;;;;;7.38;100.00;98469.72;4982032;28;19981;-83
2023/12/05 12:08:43;;;;;;;;;;;;;;;7.53;100.00;98475.16;4981352;28;19918;-81
2023/12/05 12:11:08;;;;;;;;;;;;;;;7.50;100.00;98478.81;4981274;28;19957;-83
2023/12/05 12:13:34;;;;;;;;;;;;;;;7.56;100.00;98472.34;5005653;28;19962;-86
2023/12/05 12:15:59;;;;;;;;;;;;;;;7.71;100.00;98468.94;4981597;28;19917;-83
2023/12/05 12:18:25;;;;;;;;;;;;;;;7.78;100.00;98472.09;4981363;28;19918;-84
2023/12/05 12:20:51;;;;;;;;;;;;;;;7.80;100.00;98475.50;4981784;28;19918;-84
2023/12/05 12:23:16;;;;;;;;;;;;;;;7.89;100.00;98479.44;4980931;28;20285;-84
2023/12/05 12:26:08;;;;;;;;;;;;;;;8.00;100.00;98477.09;4980688;28;19969;-83
2023/12/05 12:28:33;;;;;;;;;;;;;;;7.85;100.00;98475.25;4979536;28;19925;-83
2023/12/05 12:30:59;;;;;;;;;;;;;;;6.53;100.00;98473.88;4982394;28;19937;-82
2023/12/05 12:33:46;;;;;;;;;;;;;;;5.96;100.00;98465.94;4982543;28;19937;-83
2023/12/05 12:36:12;;;;;;;;;;;;;;;5.63;100.00;98477.03;4982754;28;19917;-83
2023/12/05 12:38:38;;;;;;;;;;;;;;;5.58;100.00;98475.50;4981481;28;20856;-82
2023/12/05 12:41:03;;;;;;;;;;;;;;;5.42;100.00;98470.06;4980957;28;20017;-82
2023/12/05 12:43:29;;;;;;;;;;;;;;;5.27;100.00;98475.03;4983276;28;20277;-84
2023/12/05 12:45:54;;;;;;;;;;;;;;;5.17;100.00;98475.47;4987150;28;19918;-82
2023/12/05 12:48:20;;;;;;;;;;;;;;;5.08;100.00;98481.97;4985195;28;20361;-83
2023/12/05 12:50:46;;;;;;;;;;;;;;;5.04;100.00;98477.75;4985889;28;19922;-83
2023/12/05 12:53:11;;;;;;;;;;;;;;;4.96;100.00;98474.59;4984824;28;20004;-83
2023/12/05 12:55:36;;;;;;;;;;;;;;;4.90;100.00;98475.72;4982523;28;20436;-84
2023/12/05 12:58:05;;;;;;;;;;;;;;;4.90;100.00;98475.72;4984225;28;20016;-84
2023/12/05 13:00:34;;;;;;;;;;;;;;;4.85;100.00;98486.41;4985118;28;19933;-83
2023/12/05 13:03:00;;;;;;;;;;;;;;;4.73;100.00;98481.63;4985614;28;19928;-85
2023/12/05 13:05:31;;;;;;;;;;;;;;;4.79;100.00;98475.31;4984930;28;19976;-84
2023/12/05 13:07:57;;;;;;;;;;;;;;;4.70;100.00;98479.97;4985047;28;19922;-87
2023/12/05 13:10:23;;;;;;;;;;;;;;;4.65;100.00;98478.47;4985376;28;19929;-85
2023/12/05 13:12:48;;;;;;;;;;;;;;;4.67;100.00;98482.72;4986654;28;20372;-87
2023/12/05 13:15:18;;;;;;;;;;;;;;;4.62;100.00;98481.22;4984548;28;20369;-85
2023/12/05 13:17:55;;;;;;;;;;;;;;;4.63;100.00;98480.31;4984310;28;19977;-85
2023/12/05 13:20:20;;;;;;;;;;;;;;;4.65;100.00;98494.22;4985578;28;20376;-84
2023/12/05 13:22:46;;;;;;;;;;;;;;;4.66;100.00;98480.16;4984121;28;19974;-85
2023/12/05 13:25:12;;;;;;;;;;;;;;;4.60;100.00;98489.13;4983021;28;19917;-85
2023/12/05 13:27:38;;;;;;;;;;;;;;;4.48;100.00;98487.88;4980372;28;19933;-85
2023/12/05 13:30:04;;;;;;;;;;;;;;;4.47;100.00;98483.53;4983999;28;19921;-85
2023/12/05 13:32:30;;;;;;;;;;;;;;;4.41;100.00;98486.38;4984509;28;19984;-85
2023/12/05 13:34:55;;;;;;;;;;;;;;;4.43;100.00;98483.69;4985094;28;19926;-85
2023/12/05 13:37:20;;;;;;;;;;;;;;;4.39;100.00;98482.97;4985472;28;20360;-85
2023/12/05 13:39:45;;;;;;;;;;;;;;;4.43;100.00;98481.06;4982282;28;20360;-85
2023/12/05 13:42:11;;;;;;;;;;;;;;;4.39;100.00;98472.47;4983921;28;19922;-85
2023/12/05 13:44:42;;;;;;;;;;;;;;;4.45;100.00;98482.72;4986055;28;19969;-84
2023/12/05 13:47:07;;;;;;;;;;;;;;;4.42;100.00;98477.59;4984693;28;19972;-85
2023/12/05 13:49:33;;;;;;;;;;;;;;;4.37;100.00;98479.53;4982982;28;19957;-84
2023/12/05 13:51:58;;;;;;;;;;;;;;;5.08;100.00;98484.59;4984895;28;19918;-84
2023/12/05 13:54:23;;;;;;;;;;;;;;;5.58;100.00;98492.09;4983697;28;19921;-85
2023/12/05 13:56:48;;;;;;;;;;;;;;;5.90;100.00;98497.75;4984002;28;20010;-86
2023/12/05 13:59:14;;;;;;;;;;;;;;;6.15;100.00;98494.06;4984073;28;20004;-85
2023/12/05 14:01:39;;;;;;;;;;;;;;;6.35;100.00;98491.38;4984997;28;20306;-85
2023/12/05 14:04:04;;;;;;;;;;;;;;;6.50;100.00;98494.22;4983347;28;19922;-86
2023/12/05 14:06:30;;;;;;;;;;;;;;;6.64;100.00;98506.72;4984393;28;19929;-86
2023/12/05 14:08:55;;;;;;;;;;;;;;;6.71;100.00;98503.72;4983271;28;19921;-85
2023/12/05 14:11:20;;;;;;;;;;;;;;;6.79;100.00;98498.09;4985073;28;19929;-86
2023/12/05 14:13:45;;;;;;;;;;;;;;;6.99;100.00;98499.78;4984335;28;19949;-85
2023/12/05 14:16:10;;;;;;;;;;;;;;;7.13;100.00;98514.03;4984960;28;19937;-86
2023/12/05 14:18:36;;;;;;;;;;;;;;;7.17;100.00;98505.06;4983761;28;19925;-89
2023/12/05 14:21:01;;;;;;;;;;;;;;;7.34;100.00;98510.34;4983174;28;19972;-86
2023/12/05 14:23:26;;;;;;;;;;;;;;;7.40;100.00;98510.06;4982399;28;19932;-86
2023/12/05 14:25:51;;;;;;;;;;;;;;;7.48;100.00;98498.25;4983225;28;20617;-86
2023/12/05 14:28:17;;;;;;;;;;;;;;;7.58;100.00;98507.41;4984340;28;20362;-86
2023/12/05 14:30:42;;;;;;;;;;;;;;;7.63;100.00;98505.41;5006813;28;20382;-86
2023/12/05 14:33:07;;;;;;;;;;;;;;;7.69;100.00;98504.22;4982746;28;19922;-87
2023/12/05 14:35:32;;;;;;;;;;;;;;;7.76;100.00;98500.34;4984467;28;19926;-87
2023/12/05 14:37:58;;;;;;;;;;;;;;;7.81;100.00;98503.59;4982918;28;19918;-86
2023/12/05 14:40:23;;;;;;;;;;;;;;;7.79;100.00;98508.94;4982983;28;20270;-86
2023/12/05 14:42:49;;;;;;;;;;;;;;;7.92;100.00;98505.66;4984221;28;21465;-85
2023/12/05 14:45:14;;;;;;;;;;;;;;;7.97;100.00;98503.63;4983943;28;19926;-86
2023/12/05 14:47:39;;;;;;;;;;;;;;;7.69;100.00;98506.84;4981233;28;19980;-86
2023/12/05 14:50:04;;;;;;;;;;;;;;;6.40;100.00;98511.34;4978468;28;20028;-86
2023/12/05 14:52:30;;;;;;;;;;;;;;;5.86;100.00;98525.09;4984210;28;19925;-86
2023/12/05 14:54:55;;;;;;;;;;;;;;;5.66;100.00;98517.22;4982772;28;19925;-88
2023/12/05 14:57:20;;;;;;;;;;;;;;;5.51;100.00;98527.47;4987598;28;19922;-86
2023/12/05 14:59:45;;;;;;;;;;;;;;;5.37;100.00;98520.16;4985536;28;19937;-86
2023/12/05 15:02:11;;;;;;;;;;;;;;;5.33;100.00;98539.59;4983891;28;19991;-86
2023/12/05 15:04:37;;;;;;;;;;;;;;;5.15;100.00;98541.19;4984650;28;19936;-85
2023/12/05 15:07:02;;;;;;;;;;;;;;;5.20;100.00;98536.63;4982848;28;19991;-86
2023/12/05 15:09:27;;;;;;;;;;;;;;;5.03;100.00;98541.72;4983051;28;19922;-85
2023/12/05 15:11:52;;;;;;;;;;;;;;;4.99;100.00;98535.69;4983008;28;20024;-86
2023/12/05 15:14:18;;;;;;;;;;;;;;;4.93;100.00;98529.84;4982183;28;20013;-85
2023/12/05 15:16:43;;;;;;;;;;;;;;;4.97;100.00;98537.53;4982250;28;19929;-86
2023/12/05 15:19:09;;;;;;;;;;;;;;;4.94;100.00;98536.81;4982381;28;19925;-86
2023/12/05 15:21:34;;;;;;;;;;;;;;;4.89;100.00;98542.25;4983358;28;20301;-85
2023/12/05 15:23:59;;;;;;;;;;;;;;;4.79;100.00;98548.78;4980675;28;19965;-86
2023/12/05 15:26:26;;;;;;;;;;;;;;;4.82;100.00;98548.63;4982570;28;19973;-85
2023/12/05 15:28:51;;;;;;;;;;;;;;;4.78;100.00;98547.91;4981384;28;19923;-86
2023/12/05 15:31:18;;;;;;;;;;;;;;;4.69;100.00;98553.50;4981473;28;20024;-85
2023/12/05 15:33:43;;;;;;;;;;;;;;;4.71;100.00;98556.94;4978908;28;19918;-90
2023/12/05 15:36:08;;;;;;;;;;;;;;;4.75;100.00;98563.78;4982138;28;19956;-86
2023/12/05 15:38:34;;;;;;;;;;;;;;;4.69;100.00;98566.63;4981264;28;19944;-86
2023/12/05 15:40:59;;;;;;;;;;;;;;;4.60;100.00;98567.00;4983082;28;19929;-86
2023/12/05 15:43:24;;;;;;;;;;;;;;;4.55;100.00;98581.13;4983332;28;19918;-86
2023/12/05 15:45:50;;;;;;;;;;;;;;;4.58;100.00;98572.31;4982916;28;19922;-87
2023/12/05 15:48:16;;;;;;;;;;;;;;;4.46;100.00;98573.59;4983426;28;19921;-87
2023/12/05 15:50:41;;;;;;;;;;;;;;;4.42;100.00;98573.78;4982672;28;19929;-87
2023/12/05 15:53:06;;;;;;;;;;;;;;;4.41;100.00;98583.41;4982349;28;19922;-87
2023/12/05 15:55:33;;;;;;;;;;;;;;;4.73;100.00;98586.59;4981979;28;20012;-87
2023/12/05 15:58:00;;;;;;;;;;;;;;;5.39;100.00;98591.03;4981283;28;20333;-88
2023/12/05 16:00:25;;;;;;;;;;;;;;;5.80;100.00;98593.72;4983205;28;19969;-87
2023/12/05 16:02:50;;;;;;;;;;;;;;;6.05;100.00;98597.94;4981879;28;20336;-87
2023/12/05 16:05:15;;;;;;;;;;;;;;;6.23;100.00;98610.31;4982819;28;20352;-86
2023/12/05 16:07:41;;;;;;;;;;;;;;;6.36;100.00;98611.47;4983785;28;19928;-88
2023/12/05 16:10:07;;;;;;;;;;;;;;;6.59;100.00;98612.22;4980631;28;19969;-87
2023/12/05 16:12:32;;;;;;;;;;;;;;;6.73;100.00;98612.44;4982391;28;20369;-87
2023/12/05 16:14:57;;;;;;;;;;;;;;;6.85;100.00;98613.66;4981623;28;19925;-87
2023/12/05 16:17:22;;;;;;;;;;;;;;;6.91;100.00;98607.25;4983305;28;19922;-86
2023/12/05 16:19:48;;;;;;;;;;;;;;;7.01;100.00;98619.06;4984652;28;19929;-86
2023/12/05 16:22:13;;;;;;;;;;;;;;;7.11;100.00;98616.00;4985253;28;20459;-87
2023/12/05 16:24:38;;;;;;;;;;;;;;;7.19;100.00;98616.50;4984454;28;19993;-86
2023/12/05 16:27:04;;;;;;;;;;;;;;;7.26;100.00;98618.75;4985827;28;19925;-87
2023/12/05 16:29:29;;;;;;;;;;;;;;;7.34;100.00;98620.16;4985047;28;20385;-87
2023/12/05 16:31:54;;;;;;;;;;;;;;;7.37;100.00;98615.63;4986102;28;20021;-87
2023/12/05 16:34:20;;;;;;;;;;;;;;;7.45;100.00;98620.50;4988463;28;19926;-85
2023/12/05 16:36:45;;;;;;;;;;;;;;;7.50;100.00;98618.50;4986891;28;19926;-88
2023/12/05 16:39:10;;;;;;;;;;;;;;;7.56;100.00;98615.56;4984343;28;19918;-88
2023/12/05 16:41:36;;;;;;;;;;;;;;;7.64;100.00;98623.06;4986757;28;19922;-86
2023/12/05 16:44:01;;;;;;;;;;;;;;;7.66;100.00;98618.59;4985081;28;20429;-88
2023/12/05 16:46:27;;;;;;;;;;;;;;;7.72;100.00;98625.34;4984779;28;19925;-86
2023/12/05 16:48:52;;;;;;;;;;;;;;;7.78;100.00;98628.53;4985832;28;19922;-89
2023/12/05 16:51:18;;;;;;;;;;;;;;;7.78;100.00;98620.63;4985070;28;19968;-88
2023/12/05 16:53:43;;;;;;;;;;;;;;;7.81;100.00;98627.53;4985118;28;19926;-86
2023/12/05 16:56:12;;;;;;;;;;;;;;;7.87;100.00;98632.50;4985866;28;19922;-88
2023/12/05 16:58:37;;;;;;;;;;;;;;;7.88;100.00;98635.97;4986073;28;20373;-88
2023/12/05 17:01:03;;;;;;;;;;;;;;;7.92;100.00;98637.56;4984956;28;19921;-87
2023/12/05 17:03:28;;;;;;;;;;;;;;;7.71;100.00;98635.03;4984583;28;19925;-87
2023/12/05 17:05:53;;;;;;;;;;;;;;;6.47;100.00;98647.81;4989381;28;19933;-87
2023/12/05 17:08:18;;;;;;;;;;;;;;;6.02;100.00;98648.91;4984782;28;19922;-87
2023/12/05 17:10:44;;;;;;;;;;;;;;;5.72;100.00;98645.75;4984877;28;19926;-86
2023/12/05 17:13:09;;;;;;;;;;;;;;;5.52;100.00;98655.31;5008479;28;19937;-87
2023/12/05 17:15:35;;;;;;;;;;;;;;;5.46;100.00;98658.19;4986026;28;20047;-87
2023/12/05 17:18:01;;;;;;;;;;;;;;;5.30;100.00;98657.06;4985978;28;19972;-87
2023/12/05 17:20:29;;;;;;;;;;;;;;;5.23;100.00;98662.56;4984705;28;19964;-87
2023/12/05 17:22:54;;;;;;;;;;;;;;;5.13;100.00;98655.09;4984159;28;19921;-88
2023/12/05 17:25:19;;;;;;;;;;;;;;;5.07;100.00;98654.44;4982879;28;19933;-87
2023/12/05 17:27:46;;;;;;;;;;;;;;;4.99;100.00;98655.63;4984228;28;19922;-88
2023/12/05 17:30:12;;;;;;;;;;;;;;;4.93;100.00;98663.72;4985327;28;19965;-88
2023/12/05 17:32:38;;;;;;;;;;;;;;;4.87;100.00;98657.81;4985400;28;19918;-87
2023/12/05 17:35:03;;;;;;;;;;;;;;;4.86;100.00;98658.69;4985841;28;19918;-87
2023/12/05 17:37:31;;;;;;;;;;;;;;;4.78;100.00;98671.25;4985074;28;19932;-86
2023/12/05 17:40:00;;;;;;;;;;;;;;;4.75;100.00;98667.91;4984030;28;20004;-87
2023/12/05 17:42:25;;;;;;;;;;;;;;;4.71;100.00;98673.25;4985892;28;19971;-87
2023/12/05 17:44:51;;;;;;;;;;;;;;;4.63;100.00;98674.47;4985478;28;19922;-88
2023/12/05 17:47:19;;;;;;;;;;;;;;;4.67;100.00;98679.53;4984900;28;19919;-87
2023/12/05 17:49:45;;;;;;;;;;;;;;;4.61;100.00;98681.50;4985616;28;19918;-86
2023/12/05 17:52:13;;;;;;;;;;;;;;;4.55;100.00;98677.38;4984080;28;19929;-87
2023/12/05 17:54:38;;;;;;;;;;;;;;;4.51;100.00;98678.38;4983995;28;19922;-87
2023/12/05 17:57:04;;;;;;;;;;;;;;;4.52;100.00;98686.19;4984946;28;19922;-85
2023/12/05 17:59:29;;;;;;;;;;;;;;;4.46;100.00;98688.19;4983583;28;20008;-86
2023/12/05 18:01:54;;;;;;;;;;;;;;;4.41;100.00;98685.72;4985217;28;19914;-87
2023/12/05 18:04:20;;;;;;;;;;;;;;;4.41;100.00;98684.88;4983736;28;19933;-85
2023/12/05 18:06:45;;;;;;;;;;;;;;;4.39;100.00;98684.94;4983614;28;20386;-85
2023/12/05 18:09:12;;;;;;;;;;;;;;;4.41;100.00;98690.13;4983657;28;19926;-86
2023/12/05 18:11:37;;;;;;;;;;;;;;;4.86;100.00;98690.19;4984496;28;19941;-86
2023/12/05 18:14:03;;;;;;;;;;;;;;;5.40;100.00;98701.28;4984661;28;20394;-86
2023/12/05 18:16:44;;;;;;;;;;;;;;;5.74;100.00;98701.72;4985023;28;19974;-85
2023/12/05 18:19:10;;;;;;;;;;;;;;;5.99;100.00;98710.34;4985029;28;19930;-87
2023/12/05 18:21:40;;;;;;;;;;;;;;;6.17;100.00;98713.16;4983335;28;19973;-86
2023/12/05 18:24:06;;;;;;;;;;;;;;;6.34;100.00;98720.34;4983782;28;19926;-87
2023/12/05 18:26:31;;;;;;;;;;;;;;;6.45;100.00;98735.69;4984431;28;19918;-87
2023/12/05 18:28:59;;;;;;;;;;;;;;;6.57;100.00;98735.13;4984620;28;19917;-87
2023/12/05 18:31:25;;;;;;;;;;;;;;;6.67;100.00;98736.44;4984359;28;19969;-86
2023/12/05 18:33:56;;;;;;;;;;;;;;;6.78;100.00;98737.75;4984017;28;19929;-86
2023/12/05 18:36:21;;;;;;;;;;;;;;;6.89;100.00;98736.38;4984423;28;20377;-87
2023/12/05 18:38:47;;;;;;;;;;;;;;;6.98;100.00;98734.25;4981857;28;19918;-87
2023/12/05 18:41:12;;;;;;;;;;;;;;;7.10;100.00;98736.34;4982613;28;19968;-87
2023/12/05 18:43:41;;;;;;;;;;;;;;;7.14;100.00;98740.53;4982958;28;19932;-87
2023/12/05 18:46:06;;;;;;;;;;;;;;;7.22;100.00;98735.75;4982827;28;20016;-86
2023/12/05 18:48:32;;;;;;;;;;;;;;;7.29;100.00;98738.94;4982741;28;20386;-86
2023/12/05 18:50:57;;;;;;;;;;;;;;;7.33;100.00;98743.16;4982741;28;20000;-86
2023/12/05 18:53:23;;;;;;;;;;;;;;;7.40;100.00;98747.25;4982844;28;19992;-85
2023/12/05 18:55:48;;;;;;;;;;;;;;;7.45;100.00;98749.63;4983847;28;19924;-86
2023/12/05 18:58:14;;;;;;;;;;;;;;;7.48;100.00;98743.38;4984215;28;19918;-86
2023/12/05 19:00:39;;;;;;;;;;;;;;;7.53;100.00;98746.66;4984085;28;19941;-85
2023/12/05 19:03:05;;;;;;;;;;;;;;;7.56;100.00;98750.03;4984019;28;19965;-84
2023/12/05 19:05:30;;;;;;;;;;;;;;;7.60;100.00;98750.72;4983080;28;20073;-85
2023/12/05 19:08:07;;;;;;;;;;;;;;;;;;;;;
2023/12/05 19:10:33;;;;;;;;;;;;;;;7.67;100.00;98748.66;4981299;28;19928;-84
2023/12/05 19:12:59;;;;;;;;;;;;;;;7.70;100.00;98751.13;4982884;28;19922;-85
2023/12/05 19:15:24;;;;;;;;;;;;;;;7.73;100.00;98758.91;4982400;28;20286;-85
2023/12/05 19:17:50;;;;;;;;;;;;;;;7.76;100.00;98756.97;4982446;28;19960;-86
2023/12/05 19:20:16;;;;;;;;;;;;;;;7.78;100.00;98760.38;4982684;28;19922;-84
2023/12/05 19:22:41;;;;;;;;;;;;;;;7.82;100.00;98761.94;4981139;28;19914;-85
2023/12/05 19:25:07;;;;;;;;;;;;;;;7.85;100.00;98753.06;4981087;28;19917;-85
2023/12/05 19:27:34;;;;;;;;;;;;;;;7.86;100.00;98759.16;4980841;28;19957;-85
2023/12/05 19:29:59;;;;;;;;;;;;;;;6.85;100.00;98771.66;4982504;28;20274;-86
2023/12/05 19:32:24;;;;;;;;;;;;;;;6.06;100.00;98770.59;4982221;28;20048;-86
2023/12/05 19:34:50;;;;;;;;;;;;;;;5.78;100.00;98784.81;4982303;28;19922;-86
2023/12/05 19:37:15;;;;;;;;;;;;;;;5.58;100.00;98775.91;4982199;28;20013;-86
2023/12/05 19:39:42;;;;;;;;;;;;;;;5.40;100.00;98774.00;4980006;28;19922;-85
2023/12/05 19:42:07;;;;;;;;;;;;;;;5.30;100.00;98780.50;4982736;28;19926;-86
2023/12/05 19:44:44;;;;;;;;;;;;;;;5.15;100.00;98788.03;4980619;28;19926;-84
2023/12/05 19:47:11;;;;;;;;;;;;;;;5.16;100.00;98784.50;4981981;28;19933;-85
2023/12/05 19:49:36;;;;;;;;;;;;;;;5.06;100.00;98796.28;4982567;28;19929;-85
2023/12/05 19:52:02;;;;;;;;;;;;;;;4.99;100.00;98793.00;4980876;28;20362;-87
2023/12/05 19:54:34;;;;;;;;;;;;;;;4.88;100.00;98796.03;4980890;28;19929;-85
2023/12/05 19:57:00;;;;;;;;;;;;;;;4.89;100.00;98796.88;4981965;28;19936;-86
2023/12/05 19:59:36;;;;;;;;;;;;;;;4.85;100.00;98804.00;4982601;28;19922;-86
2023/12/05 20:02:01;;;;;;;;;;;;;;;4.76;100.00;98812.19;4982409;28;19976;-87
2023/12/05 20:04:27;;;;;;;;;;;;;;;4.72;100.00;98805.31;4982580;28;20456;-86
2023/12/05 20:06:52;;;;;;;;;;;;;;;4.68;100.00;98808.97;4982053;28;19919;-86
2023/12/05 20:09:18;;;;;;;;;;;;;;;4.65;100.00;98814.34;4980882;28;20763;-88
2023/12/05 20:11:43;;;;;;;;;;;;;;;4.58;100.00;98823.31;4980741;28;19913;-87
2023/12/05 20:14:08;;;;;;;;;;;;;;;4.60;100.00;98813.63;4981952;28;20301;-85
2023/12/05 20:16:34;;;;;;;;;;;;;;;4.62;100.00;98815.28;4981683;28;19968;-85
2023/12/05 20:19:02;;;;;;;;;;;;;;;4.47;100.00;98810.56;4981809;28;19989;-85
2023/12/05 20:21:30;;;;;;;;;;;;;;;4.45;100.00;98820.25;4979987;28;19965;-86
2023/12/05 20:23:55;;;;;;;;;;;;;;;4.45;100.00;98813.25;4980312;28;20353;-80
2023/12/05 20:26:21;;;;;;;;;;;;;;;4.42;100.00;98812.47;4981561;28;20004;-84
2023/12/05 20:28:47;;;;;;;;;;;;;;;4.41;100.00;98822.13;4981506;28;19925;-85
2023/12/05 20:33:58;;;;;;;;;;;;;;;5.59;100.00;98829.34;4981844;28;19919;-86
2023/12/05 20:36:23;;;;;;;;;;;;;;;5.84;100.00;98831.91;4981885;28;19924;-85
2023/12/05 20:38:48;;;;;;;;;;;;;;;6.03;100.00;98839.97;4980684;28;20740;-86
2023/12/05 20:41:14;;;;;;;;;;;;;;;6.21;100.00;98840.13;4980543;28;19918;-86
2023/12/05 20:43:41;;;;;;;;;;;;;;;6.33;100.00;98845.78;4981580;28;19933;-85
2023/12/05 20:46:06;;;;;;;;;;;;;;;6.47;100.00;98846.97;4981783;28;19955;-84
2023/12/05 20:48:32;;;;;;;;;;;;;;;6.57;100.00;98836.94;4981833;28;19965;-86
2023/12/05 20:50:57;;;;;;;;;;;;;;;6.67;100.00;98841.75;4981591;28;19925;-87
2023/12/05 20:53:23;;;;;;;;;;;;;;;6.77;100.00;98830.84;4979057;28;19921;-86
2023/12/05 20:55:50;;;;;;;;;;;;;;;6.88;100.00;98836.50;4981672;28;19925;-88
2023/12/05 20:58:16;;;;;;;;;;;;;;;6.97;100.00;98837.88;4981526;28;19974;-86
2023/12/05 21:00:41;;;;;;;;;;;;;;;7.05;100.00;98831.38;4980111;28;19937;-85
2023/12/05 21:03:07;;;;;;;;;;;;;;;7.12;100.00;98841.63;4981749;28;20016;-84
2023/12/05 21:05:32;;;;;;;;;;;;;;;7.20;100.00;98839.50;4983862;28;19922;-86
2023/12/05 21:07:57;;;;;;;;;;;;;;;7.26;100.00;98844.53;4985236;28;19972;-84
2023/12/05 21:10:23;;;;;;;;;;;;;;;7.32;100.00;98833.69;4982774;28;19922;-86
2023/12/05 21:12:48;;;;;;;;;;;;;;;7.36;100.00;98839.69;4984750;28;20389;-86
2023/12/05 21:15:13;;;;;;;;;;;;;;;7.40;100.00;98836.84;4985026;28;19918;-88
2023/12/05 21:17:39;;;;;;;;;;;;;;;7.45;100.00;98834.84;4984927;28;19949;-85
2023/12/05 21:20:05;;;;;;;;;;;;;;;7.51;100.00;98843.41;4984753;28;19921;-85
2023/12/05 21:22:31;;;;;;;;;;;;;;;7.54;100.00;98848.53;4984631;28;19918;-86
2023/12/05 21:24:58;;;;;;;;;;;;;;;7.57;100.00;98848.41;4983600;28;19929;-87
2023/12/05 21:27:23;;;;;;;;;;;;;;;7.61;100.00;98847.31;4983430;28;19922;-86
2023/12/05 21:29:49;;;;;;;;;;;;;;;7.63;100.00;98848.97;4985438;28;20025;-86
2023/12/05 21:32:15;;;;;;;;;;;;;;;7.67;100.00;98841.78;4984563;28;20364;-86
2023/12/05 21:34:41;;;;;;;;;;;;;;;7.72;100.00;98846.84;4983898;28;19928;-86
2023/12/05 21:37:06;;;;;;;;;;;;;;;7.73;100.00;98844.13;4984323;28;19918;-86
2023/12/05 21:39:32;;;;;;;;;;;;;;;7.75;100.00;98842.28;4983801;28;20297;-87